sensor_id;sensor_type;location;lat;lon;timestamp;P1;durP1;ratioP1;P2;durP2;ratioP2
13263;SDS011;6700;51.988;7.646;2022-11-20T00:01:09;15.87;;;11.37;;
13263;SDS011;6700;51.988;7.646;2022-11-20T00:03:40;17.60;;;10.50;;
13263;SDS011;6700;51.988;7.646;2022-11-20T00:06:11;13.13;;;9.40;;
13263;SDS011;6700;51.988;7.646;2022-11-20T00:08:44;16.37;;;11.20;;
13263;SDS011;6700;51.988;7.646;2022-11-20T00:11:16;15.80;;;11.23;;
13263;SDS011;6700;51.988;7.646;2022-11-20T00:13:46;14.23;;;9.13;;
13263;SDS011;6700;51.988;7.646;2022-11-20T00:16:14;16.67;;;10.93;;
13263;SDS011;6700;51.988;7.646;2022-11-20T00:18:42;17.43;;;11.90;;
13263;SDS011;6700;51.988;7.646;2022-11-20T00:21:10;16.60;;;11.17;;
13263;SDS011;6700;51.988;7.646;2022-11-20T00:23:38;15.73;;;11.93;;
13263;SDS011;6700;51.988;7.646;2022-11-20T00:26:06;14.37;;;10.87;;
13263;SDS011;6700;51.988;7.646;2022-11-20T00:28:34;13.07;;;9.50;;
13263;SDS011;6700;51.988;7.646;2022-11-20T00:31:02;13.00;;;10.30;;
13263;SDS011;6700;51.988;7.646;2022-11-20T00:33:29;15.87;;;11.07;;
13263;SDS011;6700;51.988;7.646;2022-11-20T00:36:00;13.57;;;9.83;;
13263;SDS011;6700;51.988;7.646;2022-11-20T00:38:31;16.57;;;11.17;;
13263;SDS011;6700;51.988;7.646;2022-11-20T00:41:04;15.40;;;10.57;;
13263;SDS011;6700;51.988;7.646;2022-11-20T00:43:37;16.13;;;9.90;;
13263;SDS011;6700;51.988;7.646;2022-11-20T00:46:09;14.80;;;10.53;;
13263;SDS011;6700;51.988;7.646;2022-11-20T00:48:36;13.47;;;9.60;;
13263;SDS011;6700;51.988;7.646;2022-11-20T00:51:04;12.07;;;9.40;;
13263;SDS011;6700;51.988;7.646;2022-11-20T00:53:31;12.63;;;9.63;;
13263;SDS011;6700;51.988;7.646;2022-11-20T00:56:03;13.17;;;10.20;;
13263;SDS011;6700;51.988;7.646;2022-11-20T00:58:32;17.13;;;10.90;;
13263;SDS011;6700;51.988;7.646;2022-11-20T01:01:04;14.83;;;10.97;;
13263;SDS011;6700;51.988;7.646;2022-11-20T01:03:32;11.33;;;9.10;;
13263;SDS011;6700;51.988;7.646;2022-11-20T01:06:00;21.93;;;10.63;;
13263;SDS011;6700;51.988;7.646;2022-11-20T01:08:35;15.17;;;10.83;;
13263;SDS011;6700;51.988;7.646;2022-11-20T01:11:04;17.13;;;10.17;;
13263;SDS011;6700;51.988;7.646;2022-11-20T01:13:31;15.00;;;9.73;;
13263;SDS011;6700;51.988;7.646;2022-11-20T01:16:11;14.70;;;10.27;;
13263;SDS011;6700;51.988;7.646;2022-11-20T01:18:39;14.40;;;9.80;;
13263;SDS011;6700;51.988;7.646;2022-11-20T01:21:08;14.37;;;9.93;;
13263;SDS011;6700;51.988;7.646;2022-11-20T01:23:36;14.50;;;10.30;;
13263;SDS011;6700;51.988;7.646;2022-11-20T01:26:04;12.20;;;8.80;;
13263;SDS011;6700;51.988;7.646;2022-11-20T01:28:32;15.50;;;10.47;;
13263;SDS011;6700;51.988;7.646;2022-11-20T01:31:01;16.83;;;10.43;;
13263;SDS011;6700;51.988;7.646;2022-11-20T01:33:28;17.63;;;11.53;;
13263;SDS011;6700;51.988;7.646;2022-11-20T01:36:02;16.77;;;11.53;;
13263;SDS011;6700;51.988;7.646;2022-11-20T01:38:29;16.10;;;10.23;;
13263;SDS011;6700;51.988;7.646;2022-11-20T01:40:56;14.30;;;10.30;;
13263;SDS011;6700;51.988;7.646;2022-11-20T01:43:27;15.07;;;10.47;;
13263;SDS011;6700;51.988;7.646;2022-11-20T01:45:58;16.73;;;10.13;;
13263;SDS011;6700;51.988;7.646;2022-11-20T01:48:27;15.00;;;9.40;;
13263;SDS011;6700;51.988;7.646;2022-11-20T01:50:55;15.83;;;10.57;;
13263;SDS011;6700;51.988;7.646;2022-11-20T01:53:24;18.50;;;10.97;;
13263;SDS011;6700;51.988;7.646;2022-11-20T01:55:52;16.73;;;11.13;;
13263;SDS011;6700;51.988;7.646;2022-11-20T01:58:26;17.90;;;11.43;;
13263;SDS011;6700;51.988;7.646;2022-11-20T02:00:54;17.13;;;10.20;;
13263;SDS011;6700;51.988;7.646;2022-11-20T02:03:21;15.20;;;10.23;;
13263;SDS011;6700;51.988;7.646;2022-11-20T02:05:52;22.13;;;13.23;;
13263;SDS011;6700;51.988;7.646;2022-11-20T02:08:22;26.80;;;13.47;;
13263;SDS011;6700;51.988;7.646;2022-11-20T02:10:50;25.83;;;13.60;;
13263;SDS011;6700;51.988;7.646;2022-11-20T02:13:17;20.40;;;12.27;;
13263;SDS011;6700;51.988;7.646;2022-11-20T02:16:03;24.10;;;12.47;;
13263;SDS011;6700;51.988;7.646;2022-11-20T02:18:30;21.10;;;12.07;;
13263;SDS011;6700;51.988;7.646;2022-11-20T02:21:06;21.03;;;12.30;;
13263;SDS011;6700;51.988;7.646;2022-11-20T02:23:51;20.63;;;11.73;;
13263;SDS011;6700;51.988;7.646;2022-11-20T02:26:18;19.63;;;12.23;;
13263;SDS011;6700;51.988;7.646;2022-11-20T02:28:46;17.63;;;11.57;;
13263;SDS011;6700;51.988;7.646;2022-11-20T02:31:13;19.93;;;10.93;;
13263;SDS011;6700;51.988;7.646;2022-11-20T02:33:41;21.07;;;11.83;;
13263;SDS011;6700;51.988;7.646;2022-11-20T02:36:08;18.70;;;11.53;;
13263;SDS011;6700;51.988;7.646;2022-11-20T02:38:38;18.43;;;11.30;;
13263;SDS011;6700;51.988;7.646;2022-11-20T02:41:05;16.67;;;11.33;;
13263;SDS011;6700;51.988;7.646;2022-11-20T02:43:32;17.03;;;10.87;;
13263;SDS011;6700;51.988;7.646;2022-11-20T02:45:59;19.67;;;11.60;;
13263;SDS011;6700;51.988;7.646;2022-11-20T02:48:26;16.07;;;10.53;;
13263;SDS011;6700;51.988;7.646;2022-11-20T02:50:59;18.13;;;11.30;;
13263;SDS011;6700;51.988;7.646;2022-11-20T02:53:26;20.10;;;11.93;;
13263;SDS011;6700;51.988;7.646;2022-11-20T02:55:53;19.57;;;11.10;;
13263;SDS011;6700;51.988;7.646;2022-11-20T02:58:20;17.27;;;11.57;;
13263;SDS011;6700;51.988;7.646;2022-11-20T03:00:47;20.43;;;10.83;;
13263;SDS011;6700;51.988;7.646;2022-11-20T03:03:14;15.50;;;10.83;;
13263;SDS011;6700;51.988;7.646;2022-11-20T03:05:41;16.87;;;10.70;;
13263;SDS011;6700;51.988;7.646;2022-11-20T03:08:08;17.27;;;10.50;;
13263;SDS011;6700;51.988;7.646;2022-11-20T03:10:36;18.17;;;11.17;;
13263;SDS011;6700;51.988;7.646;2022-11-20T03:13:03;19.40;;;11.37;;
13263;SDS011;6700;51.988;7.646;2022-11-20T03:15:30;16.70;;;10.23;;
13263;SDS011;6700;51.988;7.646;2022-11-20T03:17:57;18.83;;;11.30;;
13263;SDS011;6700;51.988;7.646;2022-11-20T03:20:24;18.87;;;11.67;;
13263;SDS011;6700;51.988;7.646;2022-11-20T03:22:53;19.83;;;11.63;;
13263;SDS011;6700;51.988;7.646;2022-11-20T03:25:20;16.73;;;10.37;;
13263;SDS011;6700;51.988;7.646;2022-11-20T03:27:47;18.37;;;10.80;;
13263;SDS011;6700;51.988;7.646;2022-11-20T03:30:14;16.77;;;11.20;;
13263;SDS011;6700;51.988;7.646;2022-11-20T03:32:41;15.83;;;10.27;;
13263;SDS011;6700;51.988;7.646;2022-11-20T03:35:09;14.83;;;10.07;;
13263;SDS011;6700;51.988;7.646;2022-11-20T03:37:36;16.73;;;10.73;;
13263;SDS011;6700;51.988;7.646;2022-11-20T03:40:03;18.17;;;10.80;;
13263;SDS011;6700;51.988;7.646;2022-11-20T03:42:31;18.87;;;11.20;;
13263;SDS011;6700;51.988;7.646;2022-11-20T03:45:12;14.87;;;10.53;;
13263;SDS011;6700;51.988;7.646;2022-11-20T03:47:39;14.63;;;10.13;;
13263;SDS011;6700;51.988;7.646;2022-11-20T03:50:07;17.03;;;10.60;;
13263;SDS011;6700;51.988;7.646;2022-11-20T03:52:34;13.07;;;9.60;;
13263;SDS011;6700;51.988;7.646;2022-11-20T03:55:01;16.77;;;10.57;;
13263;SDS011;6700;51.988;7.646;2022-11-20T03:57:29;18.93;;;11.13;;
13263;SDS011;6700;51.988;7.646;2022-11-20T03:59:56;13.90;;;10.33;;
13263;SDS011;6700;51.988;7.646;2022-11-20T04:02:23;15.70;;;10.67;;
13263;SDS011;6700;51.988;7.646;2022-11-20T04:04:50;14.60;;;10.07;;
13263;SDS011;6700;51.988;7.646;2022-11-20T04:07:17;17.77;;;10.23;;
13263;SDS011;6700;51.988;7.646;2022-11-20T04:09:44;17.73;;;10.27;;
13263;SDS011;6700;51.988;7.646;2022-11-20T04:12:11;18.80;;;10.53;;
13263;SDS011;6700;51.988;7.646;2022-11-20T04:14:38;15.37;;;10.53;;
13263;SDS011;6700;51.988;7.646;2022-11-20T04:17:05;15.37;;;10.53;;
13263;SDS011;6700;51.988;7.646;2022-11-20T04:19:33;14.57;;;10.60;;
13263;SDS011;6700;51.988;7.646;2022-11-20T04:22:00;17.33;;;10.70;;
13263;SDS011;6700;51.988;7.646;2022-11-20T04:24:27;19.60;;;10.77;;
13263;SDS011;6700;51.988;7.646;2022-11-20T04:26:54;13.50;;;10.50;;
13263;SDS011;6700;51.988;7.646;2022-11-20T04:29:21;14.03;;;9.67;;
13263;SDS011;6700;51.988;7.646;2022-11-20T04:31:49;24.07;;;12.17;;
13263;SDS011;6700;51.988;7.646;2022-11-20T04:34:16;15.87;;;10.17;;
13263;SDS011;6700;51.988;7.646;2022-11-20T04:36:43;15.93;;;10.43;;
13263;SDS011;6700;51.988;7.646;2022-11-20T04:39:11;15.13;;;11.17;;
13263;SDS011;6700;51.988;7.646;2022-11-20T04:41:39;17.07;;;10.87;;
13263;SDS011;6700;51.988;7.646;2022-11-20T04:44:06;16.03;;;10.83;;
13263;SDS011;6700;51.988;7.646;2022-11-20T04:46:34;15.43;;;8.90;;
13263;SDS011;6700;51.988;7.646;2022-11-20T04:49:02;14.17;;;10.73;;
13263;SDS011;6700;51.988;7.646;2022-11-20T04:51:29;18.47;;;11.27;;
13263;SDS011;6700;51.988;7.646;2022-11-20T04:53:56;14.53;;;10.53;;
13263;SDS011;6700;51.988;7.646;2022-11-20T04:56:23;14.23;;;10.83;;
13263;SDS011;6700;51.988;7.646;2022-11-20T04:58:50;15.47;;;10.20;;
13263;SDS011;6700;51.988;7.646;2022-11-20T05:01:19;14.87;;;9.90;;
13263;SDS011;6700;51.988;7.646;2022-11-20T05:03:46;16.30;;;10.70;;
13263;SDS011;6700;51.988;7.646;2022-11-20T05:06:14;14.53;;;11.23;;
13263;SDS011;6700;51.988;7.646;2022-11-20T05:08:42;15.93;;;9.83;;
13263;SDS011;6700;51.988;7.646;2022-11-20T05:11:10;16.30;;;10.70;;
13263;SDS011;6700;51.988;7.646;2022-11-20T05:13:38;15.50;;;9.77;;
13263;SDS011;6700;51.988;7.646;2022-11-20T05:16:06;17.30;;;10.10;;
13263;SDS011;6700;51.988;7.646;2022-11-20T05:18:34;17.13;;;10.27;;
13263;SDS011;6700;51.988;7.646;2022-11-20T05:21:02;15.07;;;10.13;;
13263;SDS011;6700;51.988;7.646;2022-11-20T05:23:30;13.57;;;9.90;;
13263;SDS011;6700;51.988;7.646;2022-11-20T05:25:59;14.30;;;9.73;;
13263;SDS011;6700;51.988;7.646;2022-11-20T05:28:27;16.47;;;10.83;;
13263;SDS011;6700;51.988;7.646;2022-11-20T05:31:08;16.10;;;10.23;;
13263;SDS011;6700;51.988;7.646;2022-11-20T05:34:25;15.40;;;10.07;;
13263;SDS011;6700;51.988;7.646;2022-11-20T05:36:53;15.40;;;10.93;;
13263;SDS011;6700;51.988;7.646;2022-11-20T05:39:21;11.80;;;9.27;;
13263;SDS011;6700;51.988;7.646;2022-11-20T05:41:49;15.80;;;10.50;;
13263;SDS011;6700;51.988;7.646;2022-11-20T05:44:39;21.77;;;11.97;;
13263;SDS011;6700;51.988;7.646;2022-11-20T05:47:08;27.03;;;12.47;;
13263;SDS011;6700;51.988;7.646;2022-11-20T05:49:38;27.73;;;13.43;;
13263;SDS011;6700;51.988;7.646;2022-11-20T05:52:06;27.97;;;13.97;;
13263;SDS011;6700;51.988;7.646;2022-11-20T05:54:34;21.00;;;12.17;;
13263;SDS011;6700;51.988;7.646;2022-11-20T05:57:02;35.73;;;13.93;;
13263;SDS011;6700;51.988;7.646;2022-11-20T05:59:29;26.53;;;14.07;;
13263;SDS011;6700;51.988;7.646;2022-11-20T06:01:57;32.90;;;15.00;;
13263;SDS011;6700;51.988;7.646;2022-11-20T06:04:25;32.53;;;14.37;;
13263;SDS011;6700;51.988;7.646;2022-11-20T06:06:52;35.30;;;14.73;;
13263;SDS011;6700;51.988;7.646;2022-11-20T06:09:20;38.93;;;14.67;;
13263;SDS011;6700;51.988;7.646;2022-11-20T06:11:48;34.17;;;15.50;;
13263;SDS011;6700;51.988;7.646;2022-11-20T06:14:15;35.73;;;13.33;;
13263;SDS011;6700;51.988;7.646;2022-11-20T06:16:43;48.43;;;15.97;;
13263;SDS011;6700;51.988;7.646;2022-11-20T06:19:12;38.23;;;16.40;;
13263;SDS011;6700;51.988;7.646;2022-11-20T06:21:40;37.07;;;15.73;;
13263;SDS011;6700;51.988;7.646;2022-11-20T06:24:09;41.07;;;15.50;;
13263;SDS011;6700;51.988;7.646;2022-11-20T06:30:04;35.73;;;16.90;;
13263;SDS011;6700;51.988;7.646;2022-11-20T06:32:33;58.13;;;18.17;;
13263;SDS011;6700;51.988;7.646;2022-11-20T06:35:02;38.97;;;16.30;;
13263;SDS011;6700;51.988;7.646;2022-11-20T06:37:35;46.73;;;17.23;;
13263;SDS011;6700;51.988;7.646;2022-11-20T06:40:05;49.27;;;17.97;;
13263;SDS011;6700;51.988;7.646;2022-11-20T06:42:39;44.17;;;19.27;;
13263;SDS011;6700;51.988;7.646;2022-11-20T06:45:09;46.70;;;19.97;;
13263;SDS011;6700;51.988;7.646;2022-11-20T06:47:37;46.57;;;18.90;;
13263;SDS011;6700;51.988;7.646;2022-11-20T06:50:04;45.93;;;19.97;;
13263;SDS011;6700;51.988;7.646;2022-11-20T06:52:33;50.20;;;18.87;;
13263;SDS011;6700;51.988;7.646;2022-11-20T06:55:08;53.60;;;20.70;;
13263;SDS011;6700;51.988;7.646;2022-11-20T06:57:39;55.50;;;20.57;;
13263;SDS011;6700;51.988;7.646;2022-11-20T07:00:09;56.17;;;22.30;;
13263;SDS011;6700;51.988;7.646;2022-11-20T07:02:39;51.17;;;20.63;;
13263;SDS011;6700;51.988;7.646;2022-11-20T07:05:06;59.43;;;21.27;;
13263;SDS011;6700;51.988;7.646;2022-11-20T07:07:33;52.30;;;20.00;;
13263;SDS011;6700;51.988;7.646;2022-11-20T07:10:00;53.83;;;20.33;;
13263;SDS011;6700;51.988;7.646;2022-11-20T07:12:27;52.80;;;20.57;;
13263;SDS011;6700;51.988;7.646;2022-11-20T07:14:54;62.40;;;20.50;;
13263;SDS011;6700;51.988;7.646;2022-11-20T07:17:21;69.03;;;23.03;;
13263;SDS011;6700;51.988;7.646;2022-11-20T07:19:48;60.63;;;23.30;;
13263;SDS011;6700;51.988;7.646;2022-11-20T07:22:15;51.57;;;22.47;;
13263;SDS011;6700;51.988;7.646;2022-11-20T07:24:43;46.07;;;20.70;;
13263;SDS011;6700;51.988;7.646;2022-11-20T07:27:11;64.23;;;22.60;;
13263;SDS011;6700;51.988;7.646;2022-11-20T07:29:38;61.80;;;23.07;;
13263;SDS011;6700;51.988;7.646;2022-11-20T07:32:05;51.50;;;20.80;;
13263;SDS011;6700;51.988;7.646;2022-11-20T07:34:32;58.07;;;21.57;;
13263;SDS011;6700;51.988;7.646;2022-11-20T07:37:00;52.33;;;23.13;;
13263;SDS011;6700;51.988;7.646;2022-11-20T07:39:34;58.83;;;21.70;;
13263;SDS011;6700;51.988;7.646;2022-11-20T07:42:01;56.50;;;23.23;;
13263;SDS011;6700;51.988;7.646;2022-11-20T07:44:28;64.63;;;23.63;;
13263;SDS011;6700;51.988;7.646;2022-11-20T07:46:55;63.93;;;23.43;;
13263;SDS011;6700;51.988;7.646;2022-11-20T07:49:22;58.87;;;22.40;;
13263;SDS011;6700;51.988;7.646;2022-11-20T07:51:50;49.13;;;21.07;;
13263;SDS011;6700;51.988;7.646;2022-11-20T07:54:20;60.90;;;23.47;;
13263;SDS011;6700;51.988;7.646;2022-11-20T07:56:47;62.20;;;23.27;;
13263;SDS011;6700;51.988;7.646;2022-11-20T07:59:15;60.80;;;24.03;;
13263;SDS011;6700;51.988;7.646;2022-11-20T08:01:42;63.00;;;23.00;;
13263;SDS011;6700;51.988;7.646;2022-11-20T08:04:09;72.83;;;27.73;;
13263;SDS011;6700;51.988;7.646;2022-11-20T08:09:52;94.47;;;39.77;;
13263;SDS011;6700;51.988;7.646;2022-11-20T08:12:20;71.50;;;25.60;;
13263;SDS011;6700;51.988;7.646;2022-11-20T08:15:06;48.00;;;23.07;;
13263;SDS011;6700;51.988;7.646;2022-11-20T08:17:38;50.53;;;21.07;;
13263;SDS011;6700;51.988;7.646;2022-11-20T08:20:05;51.83;;;24.20;;
13263;SDS011;6700;51.988;7.646;2022-11-20T08:22:33;52.00;;;20.43;;
13263;SDS011;6700;51.988;7.646;2022-11-20T08:25:00;50.73;;;21.30;;
13263;SDS011;6700;51.988;7.646;2022-11-20T08:27:27;36.33;;;17.73;;
13263;SDS011;6700;51.988;7.646;2022-11-20T08:29:55;40.40;;;19.83;;
13263;SDS011;6700;51.988;7.646;2022-11-20T08:32:22;42.43;;;18.93;;
13263;SDS011;6700;51.988;7.646;2022-11-20T08:34:49;46.03;;;20.87;;
13263;SDS011;6700;51.988;7.646;2022-11-20T08:37:16;44.07;;;20.67;;
13263;SDS011;6700;51.988;7.646;2022-11-20T08:39:43;46.70;;;21.03;;
13263;SDS011;6700;51.988;7.646;2022-11-20T08:42:11;46.57;;;21.87;;
13263;SDS011;6700;51.988;7.646;2022-11-20T08:44:38;43.33;;;21.47;;
13263;SDS011;6700;51.988;7.646;2022-11-20T08:47:05;41.80;;;20.43;;
13263;SDS011;6700;51.988;7.646;2022-11-20T08:49:35;38.43;;;21.10;;
13263;SDS011;6700;51.988;7.646;2022-11-20T08:52:02;37.73;;;20.67;;
13263;SDS011;6700;51.988;7.646;2022-11-20T08:54:29;34.20;;;18.93;;
13263;SDS011;6700;51.988;7.646;2022-11-20T08:56:56;34.90;;;18.20;;
13263;SDS011;6700;51.988;7.646;2022-11-20T08:59:23;27.53;;;17.60;;
13263;SDS011;6700;51.988;7.646;2022-11-20T09:02:11;28.40;;;17.70;;
13263;SDS011;6700;51.988;7.646;2022-11-20T09:04:38;29.80;;;17.93;;
13263;SDS011;6700;51.988;7.646;2022-11-20T09:07:05;30.97;;;17.90;;
13263;SDS011;6700;51.988;7.646;2022-11-20T09:09:32;24.57;;;16.43;;
13263;SDS011;6700;51.988;7.646;2022-11-20T09:11:59;26.90;;;17.00;;
13263;SDS011;6700;51.988;7.646;2022-11-20T09:14:26;27.70;;;17.10;;
13263;SDS011;6700;51.988;7.646;2022-11-20T09:16:59;29.70;;;18.03;;
13263;SDS011;6700;51.988;7.646;2022-11-20T09:19:26;30.87;;;17.73;;
13263;SDS011;6700;51.988;7.646;2022-11-20T09:22:01;27.93;;;17.57;;
13263;SDS011;6700;51.988;7.646;2022-11-20T09:24:28;33.20;;;20.73;;
13263;SDS011;6700;51.988;7.646;2022-11-20T09:26:55;34.33;;;19.53;;
13263;SDS011;6700;51.988;7.646;2022-11-20T09:29:23;35.80;;;20.50;;
13263;SDS011;6700;51.988;7.646;2022-11-20T09:31:51;38.60;;;21.13;;
13263;SDS011;6700;51.988;7.646;2022-11-20T09:34:18;35.80;;;19.57;;
13263;SDS011;6700;51.988;7.646;2022-11-20T09:36:45;34.23;;;20.97;;
13263;SDS011;6700;51.988;7.646;2022-11-20T09:39:12;34.87;;;19.50;;
13263;SDS011;6700;51.988;7.646;2022-11-20T09:44:24;35.87;;;19.97;;
13263;SDS011;6700;51.988;7.646;2022-11-20T09:47:45;37.17;;;22.20;;
13263;SDS011;6700;51.988;7.646;2022-11-20T09:52:31;43.10;;;22.03;;
13263;SDS011;6700;51.988;7.646;2022-11-20T09:55:00;41.23;;;22.60;;
13263;SDS011;6700;51.988;7.646;2022-11-20T09:57:34;38.17;;;21.77;;
13263;SDS011;6700;51.988;7.646;2022-11-20T10:00:03;38.93;;;22.30;;
13263;SDS011;6700;51.988;7.646;2022-11-20T10:02:37;38.87;;;23.07;;
13263;SDS011;6700;51.988;7.646;2022-11-20T10:05:09;33.00;;;20.67;;
13263;SDS011;6700;51.988;7.646;2022-11-20T10:07:41;36.97;;;20.27;;
13263;SDS011;6700;51.988;7.646;2022-11-20T10:10:16;31.77;;;18.90;;
13263;SDS011;6700;51.988;7.646;2022-11-20T10:12:52;35.53;;;21.47;;
13263;SDS011;6700;51.988;7.646;2022-11-20T10:25:22;32.10;;;19.27;;
13263;SDS011;6700;51.988;7.646;2022-11-20T10:28:04;28.07;;;17.80;;
13263;SDS011;6700;51.988;7.646;2022-11-20T10:30:45;28.27;;;17.43;;
13263;SDS011;6700;51.988;7.646;2022-11-20T10:33:22;26.80;;;18.17;;
13263;SDS011;6700;51.988;7.646;2022-11-20T10:38:25;26.17;;;17.67;;
13263;SDS011;6700;51.988;7.646;2022-11-20T10:40:57;29.43;;;17.37;;
13263;SDS011;6700;51.988;7.646;2022-11-20T10:43:46;25.23;;;16.33;;
13263;SDS011;6700;51.988;7.646;2022-11-20T10:46:15;24.00;;;17.27;;
13263;SDS011;6700;51.988;7.646;2022-11-20T10:48:44;24.77;;;14.67;;
13263;SDS011;6700;51.988;7.646;2022-11-20T10:56:17;18.70;;;13.73;;
13263;SDS011;6700;51.988;7.646;2022-11-20T10:58:58;22.30;;;14.63;;
13263;SDS011;6700;51.988;7.646;2022-11-20T11:01:28;20.90;;;15.13;;
13263;SDS011;6700;51.988;7.646;2022-11-20T11:03:56;18.10;;;14.13;;
13263;SDS011;6700;51.988;7.646;2022-11-20T11:08:51;22.20;;;14.40;;
13263;SDS011;6700;51.988;7.646;2022-11-20T11:11:21;20.80;;;13.20;;
13263;SDS011;6700;51.988;7.646;2022-11-20T11:13:48;17.10;;;12.83;;
13263;SDS011;6700;51.988;7.646;2022-11-20T11:16:25;18.13;;;12.93;;
13263;SDS011;6700;51.988;7.646;2022-11-20T11:19:03;19.00;;;12.50;;
13263;SDS011;6700;51.988;7.646;2022-11-20T11:21:30;16.23;;;11.93;;
13263;SDS011;6700;51.988;7.646;2022-11-20T11:24:02;17.57;;;13.13;;
13263;SDS011;6700;51.988;7.646;2022-11-20T11:26:57;18.57;;;13.27;;
13263;SDS011;6700;51.988;7.646;2022-11-20T11:29:25;15.23;;;12.10;;
13263;SDS011;6700;51.988;7.646;2022-11-20T11:35:02;16.23;;;12.13;;
13263;SDS011;6700;51.988;7.646;2022-11-20T11:37:34;22.43;;;12.37;;
13263;SDS011;6700;51.988;7.646;2022-11-20T11:40:03;20.60;;;12.20;;
13263;SDS011;6700;51.988;7.646;2022-11-20T11:42:54;17.40;;;12.57;;
13263;SDS011;6700;51.988;7.646;2022-11-20T11:45:23;15.43;;;11.33;;
13263;SDS011;6700;51.988;7.646;2022-11-20T11:47:51;16.67;;;11.00;;
13263;SDS011;6700;51.988;7.646;2022-11-20T11:50:23;13.60;;;10.30;;
13263;SDS011;6700;51.988;7.646;2022-11-20T11:53:12;15.33;;;11.03;;
13263;SDS011;6700;51.988;7.646;2022-11-20T11:55:44;18.90;;;10.30;;
13263;SDS011;6700;51.988;7.646;2022-11-20T12:01:01;13.47;;;10.40;;
13263;SDS011;6700;51.988;7.646;2022-11-20T12:03:39;10.90;;;7.80;;
13263;SDS011;6700;51.988;7.646;2022-11-20T12:06:13;13.13;;;9.40;;
13263;SDS011;6700;51.988;7.646;2022-11-20T12:08:44;11.60;;;7.60;;
13263;SDS011;6700;51.988;7.646;2022-11-20T12:11:16;11.63;;;8.93;;
13263;SDS011;6700;51.988;7.646;2022-11-20T12:13:50;10.97;;;8.17;;
13263;SDS011;6700;51.988;7.646;2022-11-20T12:16:19;10.80;;;8.43;;
13263;SDS011;6700;51.988;7.646;2022-11-20T12:18:48;9.63;;;7.23;;
13263;SDS011;6700;51.988;7.646;2022-11-20T12:24:21;7.73;;;6.53;;
13263;SDS011;6700;51.988;7.646;2022-11-20T12:37:39;7.93;;;6.50;;
13263;SDS011;6700;51.988;7.646;2022-11-20T12:48:27;7.53;;;5.43;;
13263;SDS011;6700;51.988;7.646;2022-11-20T12:56:29;7.90;;;6.67;;
13263;SDS011;6700;51.988;7.646;2022-11-20T13:01:32;7.80;;;6.20;;
13263;SDS011;6700;51.988;7.646;2022-11-20T13:06:54;13.60;;;8.23;;
13263;SDS011;6700;51.988;7.646;2022-11-20T13:09:21;11.73;;;8.37;;
13263;SDS011;6700;51.988;7.646;2022-11-20T13:12:00;11.67;;;8.40;;
13263;SDS011;6700;51.988;7.646;2022-11-20T13:17:34;14.50;;;9.83;;
13263;SDS011;6700;51.988;7.646;2022-11-20T13:19:52;14.33;;;10.30;;
13263;SDS011;6700;51.988;7.646;2022-11-20T13:22:31;14.13;;;11.00;;
13263;SDS011;6700;51.988;7.646;2022-11-20T13:25:09;14.37;;;10.70;;
13263;SDS011;6700;51.988;7.646;2022-11-20T13:27:48;17.70;;;11.53;;
13263;SDS011;6700;51.988;7.646;2022-11-20T13:30:16;15.77;;;11.80;;
13263;SDS011;6700;51.988;7.646;2022-11-20T13:35:27;19.03;;;12.57;;
13263;SDS011;6700;51.988;7.646;2022-11-20T13:40:28;24.43;;;16.77;;
13263;SDS011;6700;51.988;7.646;2022-11-20T13:43:57;22.63;;;14.33;;
13263;SDS011;6700;51.988;7.646;2022-11-20T13:45:57;20.73;;;14.03;;
13263;SDS011;6700;51.988;7.646;2022-11-20T13:48:30;26.73;;;15.27;;
13263;SDS011;6700;51.988;7.646;2022-11-20T13:58:53;26.00;;;16.37;;
13263;SDS011;6700;51.988;7.646;2022-11-20T14:01:30;25.10;;;16.47;;
13263;SDS011;6700;51.988;7.646;2022-11-20T14:03:58;29.17;;;17.80;;
13263;SDS011;6700;51.988;7.646;2022-11-20T14:06:34;30.03;;;17.27;;
13263;SDS011;6700;51.988;7.646;2022-11-20T14:11:57;25.97;;;17.40;;
13263;SDS011;6700;51.988;7.646;2022-11-20T14:14:25;25.03;;;16.73;;
13263;SDS011;6700;51.988;7.646;2022-11-20T14:17:17;24.07;;;15.00;;
13263;SDS011;6700;51.988;7.646;2022-11-20T14:19:50;28.50;;;17.07;;
13263;SDS011;6700;51.988;7.646;2022-11-20T14:22:21;30.00;;;18.03;;
13263;SDS011;6700;51.988;7.646;2022-11-20T14:25:06;24.70;;;15.57;;
13263;SDS011;6700;51.988;7.646;2022-11-20T14:27:34;25.03;;;17.97;;
13263;SDS011;6700;51.988;7.646;2022-11-20T14:30:03;25.63;;;17.73;;
13263;SDS011;6700;51.988;7.646;2022-11-20T14:32:31;24.53;;;17.47;;
13263;SDS011;6700;51.988;7.646;2022-11-20T14:35:07;25.90;;;17.50;;
13263;SDS011;6700;51.988;7.646;2022-11-20T14:37:38;24.40;;;17.30;;
13263;SDS011;6700;51.988;7.646;2022-11-20T14:40:23;25.20;;;17.27;;
13263;SDS011;6700;51.988;7.646;2022-11-20T14:42:57;24.20;;;17.23;;
13263;SDS011;6700;51.988;7.646;2022-11-20T14:45:25;23.83;;;16.97;;
13263;SDS011;6700;51.988;7.646;2022-11-20T14:47:53;26.33;;;18.23;;
13263;SDS011;6700;51.988;7.646;2022-11-20T14:52:51;23.80;;;18.03;;
13263;SDS011;6700;51.988;7.646;2022-11-20T14:55:32;25.70;;;17.57;;
13263;SDS011;6700;51.988;7.646;2022-11-20T14:58:22;29.77;;;17.67;;
13263;SDS011;6700;51.988;7.646;2022-11-20T15:00:54;27.43;;;17.83;;
13263;SDS011;6700;51.988;7.646;2022-11-20T15:03:38;26.77;;;18.13;;
13263;SDS011;6700;51.988;7.646;2022-11-20T15:06:07;28.23;;;17.87;;
13263;SDS011;6700;51.988;7.646;2022-11-20T15:08:36;25.53;;;17.07;;
13263;SDS011;6700;51.988;7.646;2022-11-20T15:11:03;22.83;;;16.70;;
13263;SDS011;6700;51.988;7.646;2022-11-20T15:13:47;25.27;;;17.60;;
13263;SDS011;6700;51.988;7.646;2022-11-20T15:16:20;27.40;;;17.40;;
13263;SDS011;6700;51.988;7.646;2022-11-20T15:18:49;29.07;;;18.33;;
13263;SDS011;6700;51.988;7.646;2022-11-20T15:21:17;28.03;;;18.77;;
13263;SDS011;6700;51.988;7.646;2022-11-20T15:23:47;24.63;;;17.77;;
13263;SDS011;6700;51.988;7.646;2022-11-20T15:26:14;27.97;;;17.43;;
13263;SDS011;6700;51.988;7.646;2022-11-20T15:28:48;26.47;;;18.60;;
13263;SDS011;6700;51.988;7.646;2022-11-20T15:31:17;26.07;;;17.73;;
13263;SDS011;6700;51.988;7.646;2022-11-20T15:33:46;24.90;;;16.57;;
13263;SDS011;6700;51.988;7.646;2022-11-20T15:36:13;25.13;;;18.37;;
13263;SDS011;6700;51.988;7.646;2022-11-20T15:38:40;26.80;;;16.97;;
13263;SDS011;6700;51.988;7.646;2022-11-20T15:41:07;21.00;;;16.10;;
13263;SDS011;6700;51.988;7.646;2022-11-20T15:43:35;31.23;;;18.43;;
13263;SDS011;6700;51.988;7.646;2022-11-20T15:46:03;31.20;;;18.13;;
13263;SDS011;6700;51.988;7.646;2022-11-20T15:48:41;22.20;;;16.53;;
13263;SDS011;6700;51.988;7.646;2022-11-20T15:53:50;27.63;;;15.97;;
13263;SDS011;6700;51.988;7.646;2022-11-20T15:56:16;27.33;;;17.57;;
13263;SDS011;6700;51.988;7.646;2022-11-20T15:58:43;25.00;;;15.87;;
13263;SDS011;6700;51.988;7.646;2022-11-20T16:01:10;26.13;;;18.10;;
13263;SDS011;6700;51.988;7.646;2022-11-20T16:03:40;22.37;;;15.97;;
13263;SDS011;6700;51.988;7.646;2022-11-20T16:06:07;24.17;;;16.40;;
13263;SDS011;6700;51.988;7.646;2022-11-20T16:08:34;26.50;;;17.83;;
13263;SDS011;6700;51.988;7.646;2022-11-20T16:11:01;27.63;;;18.60;;
13263;SDS011;6700;51.988;7.646;2022-11-20T16:13:27;28.60;;;18.50;;
13263;SDS011;6700;51.988;7.646;2022-11-20T16:16:22;26.23;;;16.57;;
13263;SDS011;6700;51.988;7.646;2022-11-20T16:18:52;24.87;;;16.23;;
13263;SDS011;6700;51.988;7.646;2022-11-20T16:21:18;21.37;;;15.90;;
13263;SDS011;6700;51.988;7.646;2022-11-20T16:23:45;27.27;;;16.57;;
13263;SDS011;6700;51.988;7.646;2022-11-20T16:26:16;24.40;;;16.50;;
13263;SDS011;6700;51.988;7.646;2022-11-20T16:28:44;22.27;;;15.63;;